Time;durP1;ratioP1;P1;durP2;ratioP2;P2;SDS_P1;SDS_P2;PMS_P1;PMS_P2;Temp;Humidity;BMP_temperature;BMP_pressure;BME280_temperature;BME280_humidity;BME280_pressure;Samples;Min_cycle;Max_cycle;Signal;HPM_P1;HPM_P2
2021/10/29 00:03:19;;;;;;;;;;;11.80;99.90;;;;;;8338075;28;19928;-73
2021/10/29 00:07:21;;;;;;;;;;;11.80;99.90;;;;;;8343144;28;20293;-73
2021/10/29 00:11:23;;;;;;;;;;;11.80;99.90;;;;;;8340292;28;19928;-73
2021/10/29 00:15:25;;;;;;;;;;;11.70;99.90;;;;;;8332009;28;19925;-74
2021/10/29 00:19:26;;;;;;;;;;;11.70;99.90;;;;;;8325062;28;20467;-73
2021/10/29 00:23:30;;;;;;;;;;;11.60;99.90;;;;;;8326383;28;20402;-73
2021/10/29 00:27:32;;;;;;;;;;;11.60;99.90;;;;;;8340665;28;20433;-73
2021/10/29 00:31:34;;;;;;;;;;;11.60;99.90;;;;;;8341404;28;20521;-73
2021/10/29 00:35:36;;;;;;;;;;;11.50;99.90;;;;;;8335638;28;19925;-73
2021/10/29 00:39:37;;;;;;;;;;;11.50;99.90;;;;;;8338924;28;19924;-73
2021/10/29 00:43:39;;;;;;;;;;;11.40;99.90;;;;;;8334240;28;19921;-73
2021/10/29 00:47:40;;;;;;;;;;;11.40;99.90;;;;;;8335054;28;19980;-73
2021/10/29 00:51:43;;;;;;;;;;;11.40;99.90;;;;;;8347207;28;19928;-73
2021/10/29 00:55:45;;;;;;;;;;;11.30;99.90;;;;;;8328894;28;19929;-73
2021/10/29 00:59:48;;;;;;;;;;;11.20;99.90;;;;;;8377013;28;20388;-72
2021/10/29 01:03:50;;;;;;;;;;;11.20;99.90;;;;;;8349608;28;19921;-73
2021/10/29 01:07:53;;;;;;;;;;;11.20;99.90;;;;;;8348064;28;19928;-73
2021/10/29 01:11:55;;;;;;;;;;;11.10;99.90;;;;;;8366290;28;19925;-73
2021/10/29 01:15:57;;;;;;;;;;;11.10;99.90;;;;;;8328729;28;19921;-73
2021/10/29 01:19:59;;;;;;;;;;;11.10;99.90;;;;;;8341268;28;19920;-73
2021/10/29 01:24:00;;;;;;;;;;;11.10;99.90;;;;;;8337425;28;19924;-73
2021/10/29 01:28:02;;;;;;;;;;;11.10;99.90;;;;;;8338930;28;20369;-73
2021/10/29 01:32:05;;;;;;;;;;;11.10;99.90;;;;;;8335788;28;20257;-73
2021/10/29 01:36:07;;;;;;;;;;;11.10;99.90;;;;;;8328140;28;19925;-73
2021/10/29 01:40:10;;;;;;;;;;;11.10;99.90;;;;;;8327386;28;19929;-73
2021/10/29 01:44:13;;;;;;;;;;;11.20;99.90;;;;;;8334225;28;19943;-73
2021/10/29 01:48:14;;;;;;;;;;;11.20;99.90;;;;;;8340754;28;20368;-74
2021/10/29 01:52:16;;;;;;;;;;;11.20;99.90;;;;;;8335626;28;19921;-73
2021/10/29 01:56:18;;;;;;;;;;;11.20;99.90;;;;;;8332396;28;19996;-73
2021/10/29 02:00:20;;;;;;;;;;;11.20;99.90;;;;;;8333399;28;19940;-74
2021/10/29 02:04:22;;;;;;;;;;;11.20;99.90;;;;;;8338987;28;19944;-73
2021/10/29 02:08:25;;;;;;;;;;;11.20;99.90;;;;;;8341528;28;20284;-73
2021/10/29 02:12:27;;;;;;;;;;;11.20;99.90;;;;;;8360723;28;19921;-73
2021/10/29 02:16:29;;;;;;;;;;;11.30;99.90;;;;;;8343321;28;19960;-73
2021/10/29 02:20:31;;;;;;;;;;;11.30;99.90;;;;;;8335607;28;19921;-73
2021/10/29 02:24:34;;;;;;;;;;;11.30;99.90;;;;;;8329077;28;19967;-73
2021/10/29 02:28:36;;;;;;;;;;;11.40;99.90;;;;;;8330250;28;19925;-73
2021/10/29 02:32:37;;;;;;;;;;;11.40;99.90;;;;;;8340342;28;19921;-73
2021/10/29 02:36:39;;;;;;;;;;;11.40;99.90;;;;;;8346824;28;19920;-73
2021/10/29 02:40:41;;;;;;;;;;;11.40;99.90;;;;;;8336785;28;19925;-73
2021/10/29 02:44:43;;;;;;;;;;;11.40;99.90;;;;;;8334919;28;19936;-73
2021/10/29 02:48:45;;;;;;;;;;;11.30;99.90;;;;;;8333020;28;20368;-73
2021/10/29 02:52:47;;;;;;;;;;;11.30;99.90;;;;;;8336982;28;19921;-73
2021/10/29 02:56:48;;;;;;;;;;;11.30;99.90;;;;;;8330806;28;20575;-73
2021/10/29 03:00:50;;;;;;;;;;;11.30;99.90;;;;;;8338115;28;19928;-73
2021/10/29 03:04:52;;;;;;;;;;;11.30;99.90;;;;;;8356156;28;20040;-73
2021/10/29 03:08:53;;;;;;;;;;;11.30;99.90;;;;;;8339185;28;19941;-73
2021/10/29 03:12:55;;;;;;;;;;;11.30;99.90;;;;;;8355471;28;19929;-73
2021/10/29 03:16:57;;;;;;;;;;;11.20;99.90;;;;;;8348534;28;19925;-73
2021/10/29 03:20:58;;;;;;;;;;;11.20;99.90;;;;;;8334604;28;19921;-73
2021/10/29 03:25:00;;;;;;;;;;;11.20;99.90;;;;;;8323914;28;20422;-73
2021/10/29 03:29:02;;;;;;;;;;;11.20;99.90;;;;;;8327390;28;19924;-73
2021/10/29 03:33:04;;;;;;;;;;;11.20;99.90;;;;;;8333473;28;19925;-73
2021/10/29 03:37:18;;;;;;;;;;;11.20;99.90;;;;;;8338173;28;19922;-73
2021/10/29 03:41:22;;;;;;;;;;;11.20;99.90;;;;;;8329583;28;19921;-73
2021/10/29 03:45:24;;;;;;;;;;;11.20;99.90;;;;;;8339753;28;19928;-73
2021/10/29 03:49:37;;;;;;;;;;;11.20;99.90;;;;;;8348144;28;19925;-73
2021/10/29 03:53:51;;;;;;;;;;;11.20;99.90;;;;;;8333419;28;19932;-73
2021/10/29 03:57:53;;;;;;;;;;;11.20;99.90;;;;;;8333692;28;19932;-73
2021/10/29 04:01:55;;;;;;;;;;;11.20;99.90;;;;;;8329612;28;19921;-73
2021/10/29 04:05:56;;;;;;;;;;;11.20;99.90;;;;;;8343299;28;19931;-73
2021/10/29 04:09:58;;;;;;;;;;;11.10;99.90;;;;;;8332713;28;19921;-72
2021/10/29 04:14:00;;;;;;;;;;;11.10;99.90;;;;;;8333537;28;20344;-73
2021/10/29 04:18:01;;;;;;;;;;;11.10;99.90;;;;;;8331524;28;20244;-73
2021/10/29 04:22:03;;;;;;;;;;;11.10;99.90;;;;;;8341838;28;20284;-73
2021/10/29 04:26:05;;;;;;;;;;;11.10;99.90;;;;;;8350910;28;19921;-73
2021/10/29 04:30:11;;;;;;;;;;;11.10;99.90;;;;;;8343167;28;19932;-72
2021/10/29 04:34:13;;;;;;;;;;;11.10;99.90;;;;;;8348413;28;19921;-73
2021/10/29 04:38:15;;;;;;;;;;;11.10;99.90;;;;;;8336387;28;20384;-73
2021/10/29 04:42:17;;;;;;;;;;;11.10;99.90;;;;;;8343874;28;20368;-73
2021/10/29 04:46:18;;;;;;;;;;;11.00;99.90;;;;;;8338633;28;20380;-73
2021/10/29 04:50:20;;;;;;;;;;;11.00;99.90;;;;;;8347248;28;20377;-73
2021/10/29 04:54:22;;;;;;;;;;;11.00;99.90;;;;;;8318421;28;19936;-73
2021/10/29 04:58:24;;;;;;;;;;;11.00;99.90;;;;;;8332514;28;20415;-73
2021/10/29 05:02:25;;;;;;;;;;;11.00;99.90;;;;;;8332461;28;19921;-73
2021/10/29 05:06:27;;;;;;;;;;;11.00;99.90;;;;;;8337024;28;19929;-73
2021/10/29 05:10:29;;;;;;;;;;;11.00;99.90;;;;;;8336325;28;20307;-73
2021/10/29 05:14:31;;;;;;;;;;;11.00;99.90;;;;;;8356684;28;19955;-73
2021/10/29 05:18:32;;;;;;;;;;;11.00;99.90;;;;;;8355779;28;20323;-73
2021/10/29 05:22:34;;;;;;;;;;;11.00;99.90;;;;;;8318856;28;19991;-73
2021/10/29 05:26:37;;;;;;;;;;;11.00;99.90;;;;;;8333537;28;19921;-73
2021/10/29 05:30:38;;;;;;;;;;;11.00;99.90;;;;;;8337231;28;19921;-73
2021/10/29 05:34:40;;;;;;;;;;;11.00;99.90;;;;;;8335828;28;19928;-73
2021/10/29 05:38:44;;;;;;;;;;;11.00;99.90;;;;;;8330494;28;21271;-73
2021/10/29 05:42:45;;;;;;;;;;;11.00;99.90;;;;;;8335729;28;20012;-73
2021/10/29 05:46:47;;;;;;;;;;;11.00;99.90;;;;;;8377598;28;20388;-73
2021/10/29 05:50:50;;;;;;;;;;;11.00;99.90;;;;;;8334776;28;19925;-73
2021/10/29 05:58:56;;;;;;;;;;;11.00;99.90;;;;;;8330723;28;19936;-73
2021/10/29 06:03:03;;;;;;;;;;;11.00;99.90;;;;;;8327262;28;19930;-73
2021/10/29 06:07:05;;;;;;;;;;;11.00;99.90;;;;;;8327703;28;19926;-73
2021/10/29 06:11:06;;;;;;;;;;;11.00;99.90;;;;;;8335539;28;20345;-73
2021/10/29 06:15:08;;;;;;;;;;;10.90;99.90;;;;;;8347105;28;20385;-73
2021/10/29 06:19:10;;;;;;;;;;;10.90;99.90;;;;;;8320696;28;19932;-73
2021/10/29 06:23:12;;;;;;;;;;;10.90;99.90;;;;;;8321258;28;19925;-73
2021/10/29 06:31:22;;;;;;;;;;;10.90;99.90;;;;;;8341404;28;19947;-73
2021/10/29 06:35:23;;;;;;;;;;;11.00;99.90;;;;;;8339989;28;19924;-73
2021/10/29 06:39:25;;;;;;;;;;;11.00;99.90;;;;;;8351126;28;19925;-73
2021/10/29 06:43:31;;;;;;;;;;;11.00;99.90;;;;;;8339523;28;19929;-73
2021/10/29 07:00:38;;;;;;;;;;;11.10;99.90;;;;;;8328251;28;20258;-72
2021/10/29 07:43:35;;;;;;;;;;;11.70;99.90;;;;;;8334986;28;19924;-73
2021/10/29 07:47:37;;;;;;;;;;;11.80;99.90;;;;;;8337956;28;20391;-73
2021/10/29 07:51:39;;;;;;;;;;;11.90;99.90;;;;;;8326204;28;19948;-73
2021/10/29 07:55:44;;;;;;;;;;;12.10;99.90;;;;;;8342296;28;20351;-73
2021/10/29 07:59:53;;;;;;;;;;;12.20;99.90;;;;;;8358514;28;19970;-73
2021/10/29 08:03:54;;;;;;;;;;;12.30;99.90;;;;;;8331959;28;19929;-73
2021/10/29 08:07:56;;;;;;;;;;;12.30;99.90;;;;;;8344228;28;20232;-73
2021/10/29 08:11:58;;;;;;;;;;;12.40;99.90;;;;;;8331670;28;19929;-73
2021/10/29 08:16:03;;;;;;;;;;;12.50;99.90;;;;;;8321827;28;19926;-73
2021/10/29 08:20:06;;;;;;;;;;;12.60;99.90;;;;;;8336777;28;19976;-73
2021/10/29 08:24:10;;;;;;;;;;;12.70;99.90;;;;;;8330044;28;19936;-73
2021/10/29 08:28:12;;;;;;;;;;;12.70;99.90;;;;;;8328932;28;19979;-72
2021/10/29 08:32:23;;;;;;;;;;;12.80;99.90;;;;;;8338959;28;19933;-73
2021/10/29 08:36:25;;;;;;;;;;;12.90;99.90;;;;;;8326602;28;19925;-73
2021/10/29 08:40:28;;;;;;;;;;;13.00;99.90;;;;;;8321473;28;19929;-72
2021/10/29 08:44:30;;;;;;;;;;;13.10;99.90;;;;;;8336115;28;19937;-73
2021/10/29 08:48:36;;;;;;;14.33;7.33;;;13.20;99.90;;;;;;8328825;28;19921;-73
2021/10/29 08:52:40;;;;;;;13.60;6.80;;;13.30;99.90;;;;;;8355137;28;20266;-73
2021/10/29 08:56:42;;;;;;;11.68;7.07;;;13.40;99.90;;;;;;8341296;28;20508;-73
2021/10/29 09:00:45;;;;;;;10.90;6.88;;;13.40;99.90;;;;;;8336923;28;20049;-74
2021/10/29 09:34:32;;;;;;;;;;;15.40;99.90;;;;;;8357656;28;20015;-73
2021/10/29 09:38:34;;;;;;;;;;;15.40;99.90;;;;;;8350716;28;20399;-73
2021/10/29 09:42:36;;;;;;;;;;;15.40;99.90;;;;;;8341033;28;20441;-72
2021/10/29 09:46:46;;;;;;;;;;;15.40;99.90;;;;;;8326464;28;19932;-73
2021/10/29 09:50:51;;;;;;;;;;;15.30;99.90;;;;;;8337873;28;20398;-73
2021/10/29 09:55:12;;;;;;;;;;;15.40;99.90;;;;;;8337634;28;19921;-73
2021/10/29 09:59:13;;;;;;;10.80;6.75;;;15.50;99.90;;;;;;8337423;28;19921;-73
2021/10/29 10:03:17;;;;;;;;;;;15.70;99.90;;;;;;8327123;28;19936;-73
2021/10/29 10:07:20;;;;;;;;;;;16.00;99.90;;;;;;8337769;28;20661;-73
2021/10/29 10:11:23;;;;;;;;;;;16.40;99.90;;;;;;8336480;28;19978;-74
2021/10/29 10:15:25;;;;;;;;;;;16.70;99.90;;;;;;8357425;28;20300;-74
2021/10/29 10:19:27;;;;;;;;;;;16.90;99.90;;;;;;8355068;28;19972;-74
2021/10/29 10:23:32;;;;;;;;;;;16.70;99.90;;;;;;8346130;28;19936;-73
2021/10/29 10:27:53;;;;;;;;;;;16.40;99.90;;;;;;8336365;28;19932;-73
2021/10/29 10:45:40;;;;;;;;;;;15.60;99.90;;;;;;8338084;28;19933;-73
2021/10/29 10:49:21;;;;;;;;;;;15.70;99.90;;;;;;8324955;28;19944;-73
2021/10/29 10:53:39;;;;;;;11.68;5.88;;;15.70;99.90;;;;;;8339613;28;19928;-73
2021/10/29 10:58:06;;;;;;;9.70;5.75;;;15.70;99.90;;;;;;8335119;28;20049;-74
2021/10/29 11:03:20;;;;;;;12.57;5.72;;;15.70;99.90;;;;;;8326666;28;20053;-74
2021/10/29 11:06:57;;;;;;;9.63;6.55;;;15.80;99.90;;;;;;8325558;28;20110;-73
2021/10/29 11:11:03;;;;;;;;;;;15.80;99.90;;;;;;8340366;28;20053;-73
2021/10/29 11:15:09;;;;;;;;;;;16.00;99.90;;;;;;8337229;28;20299;-74
2021/10/29 11:19:15;;;;;;;;;;;16.50;99.90;;;;;;8327723;28;20240;-73
2021/10/29 11:23:20;;;;;;;;;;;17.20;99.90;;;;;;8326825;28;19920;-73
2021/10/29 11:27:21;;;;;;;9.90;5.97;;;17.70;99.90;;;;;;8339392;28;19960;-74
2021/10/29 11:31:30;;;;;;;8.80;5.70;;;18.00;99.90;;;;;;8354636;28;20528;-74
2021/10/29 11:35:32;;;;;;;9.23;5.32;;;18.20;99.90;;;;;;8334128;28;20053;-74
2021/10/29 11:39:39;;;;;;;;;;;18.30;99.90;;;;;;8326001;28;20215;-74
2021/10/29 11:43:41;;;;;;;;;;;18.20;99.90;;;;;;8334786;28;21971;-73
2021/10/29 11:47:52;;;;;;;;;;;18.20;99.90;;;;;;8335057;28;19947;-73
2021/10/29 11:51:55;;;;;;;;;;;18.10;99.90;;;;;;8325380;28;19955;-73
2021/10/29 11:56:02;;;;;;;;;;;18.10;99.90;;;;;;8338846;28;19983;-73
2021/10/29 12:00:21;;;;;;;;;;;18.00;99.90;;;;;;8336142;28;19921;-72
2021/10/29 12:08:45;;;;;;;;;;;18.20;99.90;;;;;;8338601;28;19929;-72
2021/10/29 12:12:48;;;;;;;;;;;18.30;99.90;;;;;;8339710;28;19925;-73
2021/10/29 12:16:52;;;;;;;;;;;18.40;99.90;;;;;;8336387;28;19921;-73
2021/10/29 12:20:54;;;;;;;;;;;18.50;99.90;;;;;;8324802;28;19921;-73
2021/10/29 12:29:23;;;;;;;;;;;18.50;99.90;;;;;;8323099;28;19925;-73
2021/10/29 12:38:05;;;;;;;;;;;18.60;99.90;;;;;;8342607;28;19924;-73
2021/10/29 13:04:12;;;;;;;;;;;19.10;99.90;;;;;;8338125;28;19925;-73
2021/10/29 13:08:22;;;;;;;;;;;19.00;99.90;;;;;;8356180;28;19922;-72
2021/10/29 13:12:29;;;;;;;;;;;19.00;99.90;;;;;;8344431;28;20391;-73
2021/10/29 13:16:31;;;;;;;;;;;19.20;99.90;;;;;;8344212;28;19929;-72
2021/10/29 13:34:17;;;;;;;;;;;19.10;99.90;;;;;;8307794;28;19921;-73
2021/10/29 13:38:23;;;;;;;;;;;19.20;99.90;;;;;;8327251;28;20287;-73
2021/10/29 13:52:21;;;;;;;;;;;19.20;99.90;;;;;;8333342;28;19947;-73
2021/10/29 14:16:34;;;;;;;;;;;19.20;99.90;;;;;;8341611;28;19952;-73
2021/10/29 14:30:15;;;;;;;;;;;19.00;99.90;;;;;;8341290;28;19998;-73
2021/10/29 14:34:21;;;;;;;;;;;19.00;99.90;;;;;;8338675;28;19920;-73
2021/10/29 14:51:21;;;;;;;;;;;18.30;99.90;;;;;;8322097;28;19921;-73
2021/10/29 15:29:24;;;;;;;8.80;3.45;;;17.70;99.90;;;;;;8303856;28;20050;-74
2021/10/29 15:33:36;;;;;;;8.70;3.30;;;17.70;99.90;;;;;;8292783;28;20049;-74
2021/10/29 15:46:15;;;;;;;5.15;3.30;;;17.50;99.90;;;;;;8304924;28;20401;-74
2021/10/29 15:50:18;;;;;;;;;;;17.50;99.90;;;;;;8297672;28;20382;-74
2021/10/29 15:54:20;;;;;;;;;;;17.50;99.90;;;;;;8291738;28;19936;-74
2021/10/29 16:03:06;;;;;;;;;;;17.30;99.90;;;;;;8300736;28;20619;-73
2021/10/29 16:20:09;;;;;;;;;;;17.00;99.90;;;;;;8292286;28;19922;-73
2021/10/29 16:24:11;;;;;;;;;;;16.90;99.90;;;;;;8309092;28;19982;-73
2021/10/29 16:28:13;;;;;;;;;;;16.80;99.90;;;;;;8304427;28;19921;-73
2021/10/29 16:32:23;;;;;;;;;;;16.70;99.90;;;;;;8320154;28;20210;-73
2021/10/29 16:36:24;;;;;;;;;;;16.60;99.90;;;;;;8305842;28;19937;-73
2021/10/29 16:40:26;;;;;;;;;;;16.50;99.90;;;;;;8312681;28;19920;-74
2021/10/29 16:44:28;;;;;;;;;;;16.40;99.90;;;;;;8311820;28;19940;-73
2021/10/29 16:48:29;;;;;;;;;;;16.30;99.90;;;;;;8297730;28;19928;-73
2021/10/29 16:52:31;;;;;;;;;;;16.20;99.90;;;;;;8298576;28;19929;-74
2021/10/29 16:56:33;;;;;;;;;;;16.10;99.90;;;;;;8299803;28;19927;-73
2021/10/29 17:00:36;;;;;;;;;;;16.10;99.90;;;;;;8325787;28;19921;-73
2021/10/29 17:04:41;;;;;;;;;;;16.00;99.90;;;;;;8313945;28;20299;-74
2021/10/29 17:08:43;;;;;;;;;;;16.00;99.90;;;;;;8299378;28;19975;-74
2021/10/29 17:12:45;;;;;;;;;;;16.00;99.90;;;;;;8304300;28;19979;-73
2021/10/29 17:16:47;;;;;;;;;;;15.90;99.90;;;;;;8294709;28;19984;-73
2021/10/29 17:20:49;;;;;;;;;;;15.90;99.90;;;;;;8297436;28;19929;-74
2021/10/29 17:24:50;;;;;;;;;;;15.80;99.90;;;;;;8310379;28;19925;-74
2021/10/29 17:28:52;;;;;;;;;;;15.70;99.90;;;;;;8309744;28;19944;-73
2021/10/29 17:32:54;;;;;;;;;;;15.70;99.90;;;;;;8307120;28;20020;-73
2021/10/29 17:36:55;;;;;;;;;;;15.60;99.90;;;;;;8293688;28;19929;-73
2021/10/29 17:40:57;;;;;;;;;;;15.60;99.90;;;;;;8298311;28;24210;-73
2021/10/29 17:44:59;;;;;;;;;;;15.50;99.90;;;;;;8297696;28;19937;-73
2021/10/29 17:49:00;;;;;;;;;;;15.50;99.90;;;;;;8291741;28;19933;-73
2021/10/29 17:53:02;;;;;;;;;;;15.40;99.90;;;;;;8296621;28;19928;-73
2021/10/29 17:57:07;;;;;;;;;;;15.40;99.90;;;;;;8294470;28;19995;-73
2021/10/29 18:01:08;;;;;;;;;;;15.30;99.90;;;;;;8296882;28;19921;-74
2021/10/29 18:05:10;;;;;;;;;;;15.30;99.90;;;;;;8311452;28;19932;-73
2021/10/29 18:09:12;;;;;;;;;;;15.20;99.90;;;;;;8290856;28;19921;-73
2021/10/29 18:13:14;;;;;;;;;;;15.20;99.90;;;;;;8293254;28;19932;-73
2021/10/29 18:17:15;;;;;;;;;;;15.20;99.90;;;;;;8289537;28;19924;-74
2021/10/29 18:21:17;;;;;;;;;;;15.20;99.90;;;;;;8296702;28;19925;-73
2021/10/29 18:25:19;;;;;;;;;;;15.20;99.90;;;;;;8296232;28;20277;-73
2021/10/29 18:29:22;;;;;;;;;;;15.10;99.90;;;;;;8309190;28;19933;-73
2021/10/29 18:33:23;;;;;;;;;;;15.10;99.90;;;;;;8295229;28;19921;-73
2021/10/29 18:37:25;;;;;;;;;;;15.00;99.90;;;;;;8294050;28;20197;-73
2021/10/29 18:41:32;;;;;;;;;;;15.00;99.90;;;;;;8292876;28;19940;-73
2021/10/29 18:45:35;;;;;;;;;;;15.00;99.90;;;;;;8317018;28;19928;-74
2021/10/29 18:49:36;;;;;;;;;;;15.00;99.90;;;;;;8321554;28;19921;-73
2021/10/29 18:53:38;;;;;;;;;;;15.00;99.90;;;;;;8315574;28;20141;-73
2021/10/29 18:57:40;;;;;;;;;;;15.00;99.90;;;;;;8293070;28;20404;-73
2021/10/29 19:01:42;;;;;;;6.90;3.70;;;15.00;99.90;;;;;;8297095;28;19925;-73
2021/10/29 19:05:44;;;;;;;;;;;15.00;99.90;;;;;;8307673;28;19936;-73
2021/10/29 19:09:45;;;;;;;;;;;15.10;99.90;;;;;;8296515;28;19928;-73
2021/10/29 19:13:47;;;;;;;;;;;15.00;99.90;;;;;;8298180;28;19944;-73
2021/10/29 19:17:49;;;;;;;;;;;15.00;99.90;;;;;;8291345;28;19997;-73
2021/10/29 19:21:50;;;;;;;;;;;15.00;99.90;;;;;;8311675;28;19976;-73
2021/10/29 19:25:52;;;;;;;;;;;15.00;99.90;;;;;;8296060;28;20380;-73
2021/10/29 19:29:55;;;;;;;;;;;15.00;99.90;;;;;;8302292;28;19979;-73
2021/10/29 19:33:58;;;;;;;;;;;15.00;99.90;;;;;;8301044;28;20365;-73
2021/10/29 19:38:11;;;;;;;;;;;15.10;99.90;;;;;;8288910;28;19929;-73
2021/10/29 19:42:13;;;;;;;;;;;15.00;99.90;;;;;;8297621;28;20314;-73
2021/10/29 19:46:15;;;;;;;;;;;15.00;99.90;;;;;;8295113;28;19951;-73
2021/10/29 19:50:17;;;;;;;;;;;14.90;99.90;;;;;;8298683;28;19928;-73
2021/10/29 19:54:19;;;;;;;;;;;14.90;99.90;;;;;;8291156;28;20423;-73
2021/10/29 19:58:21;;;;;;;;;;;14.80;99.90;;;;;;8290230;28;20024;-73
2021/10/29 20:02:23;;;;;;;;;;;14.80;99.90;;;;;;8292091;28;19925;-73
2021/10/29 20:06:24;;;;;;;;;;;14.80;99.90;;;;;;8322020;28;20332;-73
2021/10/29 20:10:26;;;;;;;;;;;14.80;99.90;;;;;;8294349;28;19929;-73
2021/10/29 20:14:28;;;;;;;;;;;14.80;99.90;;;;;;8293108;28;19952;-73
2021/10/29 20:18:32;;;;;;;;;;;14.70;99.90;;;;;;8292279;28;19922;-73
2021/10/29 20:22:34;;;;;;;;;;;14.70;99.90;;;;;;8291061;28;19971;-73
2021/10/29 20:26:37;;;;;;;;;;;14.70;99.90;;;;;;8293349;28;19964;-73
2021/10/29 20:30:39;;;;;;;;;;;14.70;99.90;;;;;;8292079;28;19921;-73
2021/10/29 20:34:41;;;;;;;;;;;14.70;99.90;;;;;;8290544;28;19922;-73
2021/10/29 20:38:43;;;;;;;;;;;14.70;99.90;;;;;;8309319;28;19925;-73
2021/10/29 20:42:44;;;;;;;;;;;14.80;99.90;;;;;;8294847;28;20313;-73
2021/10/29 20:46:46;;;;;;;;;;;14.80;99.90;;;;;;8289800;28;20361;-73
2021/10/29 20:50:48;;;;;;;;;;;14.70;99.90;;;;;;8291330;28;20258;-73
2021/10/29 20:54:50;;;;;;;;;;;14.70;99.90;;;;;;8290126;28;20028;-73
2021/10/29 20:58:52;;;;;;;;;;;14.70;99.90;;;;;;8291400;28;20476;-73
2021/10/29 21:02:53;;;;;;;;;;;14.60;99.90;;;;;;8312206;28;19943;-73
2021/10/29 21:06:55;;;;;;;;;;;14.60;99.90;;;;;;8344179;28;20007;-73
2021/10/29 21:10:57;;;;;;;;;;;14.60;99.90;;;;;;8361437;28;19983;-73
2021/10/29 21:14:59;;;;;;;;;;;14.50;99.90;;;;;;8306205;28;19921;-73
2021/10/29 21:19:02;;;;;;;;;;;14.40;99.90;;;;;;8316598;28;20315;-73
2021/10/29 21:23:03;;;;;;;;;;;14.40;99.90;;;;;;8314734;28;20315;-73
2021/10/29 21:27:05;;;;;;;;;;;14.40;99.90;;;;;;8321798;28;19932;-73
2021/10/29 21:31:07;;;;;;;;;;;14.30;99.90;;;;;;8338206;28;19924;-73
2021/10/29 21:35:09;;;;;;;;;;;14.20;99.90;;;;;;8344223;28;20012;-73
2021/10/29 21:39:11;;;;;;;;;;;14.20;99.90;;;;;;8328159;28;19921;-73
2021/10/29 21:43:12;;;;;;;;;;;14.10;99.90;;;;;;8343280;28;20329;-73
2021/10/29 21:47:14;;;;;;;;;;;14.10;99.90;;;;;;8326018;28;19943;-73
2021/10/29 21:51:16;;;;;;;;;;;14.00;99.90;;;;;;8334202;28;19920;-73
2021/10/29 21:55:18;;;;;;;;;;;14.00;99.90;;;;;;8329044;28;20365;-73
2021/10/29 21:59:20;;;;;;;;;;;13.90;99.90;;;;;;8327652;28;19921;-73
2021/10/29 22:03:23;;;;;;;;;;;13.90;99.90;;;;;;8339839;28;19920;-73
2021/10/29 22:07:24;;;;;;;;;;;13.80;99.90;;;;;;8341434;28;19924;-73
2021/10/29 22:11:27;;;;;;;;;;;13.80;99.90;;;;;;8350853;28;19924;-74
2021/10/29 22:15:28;;;;;;;;;;;13.90;99.90;;;;;;8342512;28;19924;-73
2021/10/29 22:19:30;;;;;;;;;;;13.90;99.90;;;;;;8340527;28;20054;-73
2021/10/29 22:23:32;;;;;;;;;;;13.90;99.90;;;;;;8337281;28;19921;-73
2021/10/29 22:27:34;;;;;;;;;;;13.90;99.90;;;;;;8331161;28;20299;-73
2021/10/29 22:31:36;;;;;;;;;;;13.80;99.90;;;;;;8332613;28;19921;-73
2021/10/29 22:35:37;;;;;;;;;;;13.80;99.90;;;;;;8336963;28;20011;-73
2021/10/29 22:39:39;;;;;;;;;;;13.80;99.90;;;;;;8339420;28;19924;-73
2021/10/29 22:43:41;;;;;;;;;;;13.70;99.90;;;;;;8342159;28;19927;-73
2021/10/29 22:47:43;;;;;;;;;;;13.70;99.90;;;;;;8338106;28;19952;-73
2021/10/29 22:51:44;;;;;;;;;;;13.70;99.90;;;;;;8337480;28;19929;-74
2021/10/29 22:55:50;;;;;;;;;;;13.70;99.90;;;;;;8337869;28;19920;-73
2021/10/29 22:59:52;;;;;;;;;;;13.60;99.90;;;;;;8339921;28;19967;-73
2021/10/29 23:03:53;;;;;;;;;;;13.60;99.90;;;;;;8337833;28;20403;-73
2021/10/29 23:07:55;;;;;;;;;;;13.50;99.90;;;;;;8371515;28;19943;-73
2021/10/29 23:11:57;;;;;;;;;;;13.50;99.90;;;;;;8341794;28;19920;-73
2021/10/29 23:15:58;;;;;;;;;;;13.50;99.90;;;;;;8336657;28;19921;-73
2021/10/29 23:20:00;;;;;;;;;;;13.50;99.90;;;;;;8332845;28;19989;-73
2021/10/29 23:24:02;;;;;;;;;;;13.50;99.90;;;;;;8333954;28;19921;-73
2021/10/29 23:28:23;;;;;;;;;;;13.40;99.90;;;;;;8348223;28;19983;-73
2021/10/29 23:32:24;;;;;;;;;;;13.40;99.90;;;;;;8340640;28;19982;-73
2021/10/29 23:36:26;;;;;;;;;;;13.30;99.90;;;;;;8328138;28;19921;-73
2021/10/29 23:40:28;;;;;;;;;;;13.30;99.90;;;;;;8338748;28;20360;-73
2021/10/29 23:44:29;;;;;;;;;;;13.30;99.90;;;;;;8338482;28;19928;-73
2021/10/29 23:48:31;;;;;;;;;;;13.30;99.90;;;;;;8333692;28;19924;-73
2021/10/29 23:52:33;;;;;;;;;;;13.20;99.90;;;;;;8322876;28;19983;-73
2021/10/29 23:56:34;;;;;;;;;;;13.20;99.90;;;;;;8334877;28;19931;-73
